createdAt,value
2022-12-19T00:01:34.866Z,36.00
2022-12-19T00:04:04.730Z,36.00
2022-12-19T00:06:35.356Z,36.20
2022-12-19T00:09:01.915Z,35.80
2022-12-19T00:11:29.406Z,35.80
2022-12-19T00:13:56.244Z,36.20
2022-12-19T00:16:24.180Z,36.00
2022-12-19T00:18:55.189Z,36.00
2022-12-19T00:21:23.107Z,36.00
2022-12-19T00:23:49.985Z,36.20
2022-12-19T00:26:18.023Z,36.20
2022-12-19T00:28:45.496Z,36.20
2022-12-19T00:31:12.190Z,35.90
2022-12-19T00:33:42.599Z,36.00
2022-12-19T00:36:11.445Z,35.80
2022-12-19T00:38:38.177Z,36.10
2022-12-19T00:41:18.775Z,36.60
2022-12-19T00:43:45.852Z,37.00
2022-12-19T00:46:13.756Z,37.50
2022-12-19T00:48:40.529Z,36.90
2022-12-19T00:51:08.460Z,36.80
2022-12-19T00:53:35.045Z,38.00
2022-12-19T00:56:02.933Z,36.90
2022-12-19T00:58:32.147Z,36.50
2022-12-19T01:01:08.561Z,36.50
2022-12-19T01:03:35.200Z,36.80
2022-12-19T01:06:02.035Z,37.10
2022-12-19T01:08:28.596Z,36.80
2022-12-19T01:10:56.014Z,36.90
2022-12-19T01:13:22.934Z,36.80
2022-12-19T01:15:49.547Z,37.30
2022-12-19T01:18:16.134Z,36.90
2022-12-19T01:20:44.118Z,36.50
2022-12-19T01:23:10.755Z,36.90
2022-12-19T01:25:38.624Z,37.10
2022-12-19T01:28:07.903Z,36.90
2022-12-19T01:30:35.521Z,36.40
2022-12-19T01:33:02.295Z,36.80
2022-12-19T01:35:28.892Z,37.20
2022-12-19T01:38:08.196Z,37.30
2022-12-19T01:40:35.848Z,36.80
2022-12-19T01:43:02.430Z,36.70
2022-12-19T01:45:34.510Z,37.10
2022-12-19T01:48:15.720Z,36.90
2022-12-19T01:51:01.844Z,37.20
2022-12-19T01:53:31.532Z,36.60
2022-12-19T01:55:58.129Z,37.10
2022-12-19T01:58:25.198Z,36.80
2022-12-19T02:00:51.816Z,37.10
2022-12-19T02:03:26.779Z,36.60
2022-12-19T02:05:54.010Z,36.40
2022-12-19T02:08:21.392Z,36.70
2022-12-19T02:10:47.998Z,36.70
2022-12-19T02:13:14.722Z,36.70
2022-12-19T02:15:51.136Z,36.30
2022-12-19T02:18:20.469Z,36.50
2022-12-19T02:21:06.043Z,36.50
2022-12-19T02:23:35.586Z,37.00
2022-12-19T02:26:14.249Z,36.40
2022-12-19T02:29:00.190Z,36.40
2022-12-19T02:31:35.136Z,36.40
2022-12-19T02:34:14.046Z,36.40
2022-12-19T02:36:45.321Z,36.30
2022-12-19T02:39:16.065Z,36.30
2022-12-19T02:41:47.611Z,36.20
2022-12-19T02:44:19.287Z,36.30
2022-12-19T02:46:46.076Z,36.40
2022-12-19T02:49:17.831Z,36.30
2022-12-19T02:51:50.514Z,36.20
2022-12-19T02:54:17.175Z,36.60
2022-12-19T02:56:52.603Z,36.70
2022-12-19T02:59:31.433Z,36.10
2022-12-19T03:02:17.148Z,36.20
2022-12-19T03:04:56.273Z,36.40
2022-12-19T03:07:31.101Z,36.80
2022-12-19T03:10:05.521Z,36.20
2022-12-19T03:12:34.299Z,36.20
2022-12-19T03:15:01.309Z,36.30
2022-12-19T03:17:28.218Z,36.20
2022-12-19T03:19:55.516Z,36.20
2022-12-19T03:22:22.320Z,36.20
2022-12-19T03:24:48.948Z,36.20
2022-12-19T03:27:24.887Z,36.50
2022-12-19T03:29:57.255Z,36.20
2022-12-19T03:32:24.642Z,36.10
2022-12-19T03:34:59.619Z,36.30
2022-12-19T03:37:28.310Z,36.20
2022-12-19T03:39:58.581Z,36.30
2022-12-19T03:42:44.854Z,36.70
2022-12-19T03:45:12.650Z,36.10
2022-12-19T03:47:41.885Z,36.50
2022-12-19T03:50:09.064Z,35.90
2022-12-19T03:52:39.652Z,35.90
2022-12-19T03:55:16.590Z,36.80
2022-12-19T03:57:46.140Z,36.10
2022-12-19T04:00:14.659Z,36.40
2022-12-19T04:02:43.709Z,36.20
2022-12-19T04:05:13.247Z,36.10
2022-12-19T04:07:40.151Z,36.30
2022-12-19T04:10:09.347Z,36.30
2022-12-19T04:12:38.184Z,36.20
2022-12-19T04:15:05.418Z,36.50
2022-12-19T04:17:36.404Z,36.10
2022-12-19T04:20:08.146Z,36.20
2022-12-19T04:22:56.683Z,36.20
2022-12-19T04:25:29.705Z,36.10
2022-12-19T04:28:07.970Z,36.30
2022-12-19T04:30:36.587Z,36.00
2022-12-19T04:33:03.884Z,36.10
2022-12-19T04:35:30.552Z,36.40
2022-12-19T04:37:57.162Z,36.00
2022-12-19T04:40:23.742Z,36.10
2022-12-19T04:42:50.337Z,36.30
2022-12-19T04:45:16.922Z,36.10
2022-12-19T04:47:43.884Z,36.20
2022-12-19T04:50:10.867Z,36.10
2022-12-19T04:52:37.470Z,35.60
2022-12-19T04:55:04.223Z,35.70
2022-12-19T04:57:31.043Z,36.10
2022-12-19T04:59:57.663Z,36.30
2022-12-19T05:02:24.724Z,36.80
2022-12-19T05:04:51.723Z,36.80
2022-12-19T05:07:18.303Z,37.30
2022-12-19T05:09:44.870Z,36.90
2022-12-19T05:12:11.581Z,36.30
2022-12-19T05:14:38.158Z,36.20
2022-12-19T05:17:04.715Z,36.30
2022-12-19T05:19:31.300Z,36.30
2022-12-19T05:21:58.285Z,36.10
2022-12-19T05:24:24.875Z,36.20
2022-12-19T05:26:51.447Z,36.00
2022-12-19T05:29:18.006Z,36.70
2022-12-19T05:31:45.043Z,36.00
2022-12-19T05:34:11.715Z,35.90
2022-12-19T05:36:38.756Z,36.30
2022-12-19T05:39:05.325Z,36.40
2022-12-19T05:41:31.934Z,36.00
2022-12-19T05:43:58.596Z,36.20
2022-12-19T05:46:25.298Z,36.10
2022-12-19T05:48:51.842Z,36.30
2022-12-19T05:51:18.548Z,36.20
2022-12-19T05:53:45.127Z,36.00
2022-12-19T05:56:13.235Z,36.40
2022-12-19T05:58:40.396Z,36.40
2022-12-19T06:01:08.875Z,36.30
2022-12-19T06:03:35.488Z,36.10
2022-12-19T06:06:03.861Z,36.50
2022-12-19T06:08:30.475Z,36.20
2022-12-19T06:10:58.504Z,36.30
2022-12-19T06:13:25.246Z,36.50
2022-12-19T06:15:56.745Z,36.10
2022-12-19T06:18:23.285Z,36.40
2022-12-19T06:20:57.055Z,36.20
2022-12-19T06:23:23.608Z,36.10
2022-12-19T06:25:50.244Z,36.30
2022-12-19T06:28:16.787Z,36.00
2022-12-19T06:30:43.337Z,36.10
2022-12-19T06:33:10.050Z,36.50
2022-12-19T06:35:37.110Z,36.10
2022-12-19T06:38:03.688Z,36.80
2022-12-19T06:40:49.005Z,36.10
2022-12-19T06:43:15.561Z,36.10
2022-12-19T06:45:42.146Z,36.20
2022-12-19T06:48:08.714Z,36.10
2022-12-19T06:50:35.862Z,36.10
2022-12-19T06:53:05.432Z,37.00
2022-12-19T06:55:32.282Z,36.30
2022-12-19T06:57:58.849Z,36.20
2022-12-19T07:00:26.224Z,36.40
2022-12-19T07:02:53.650Z,36.40
2022-12-19T07:05:20.299Z,36.30
2022-12-19T07:07:46.885Z,36.30
2022-12-19T07:10:13.640Z,36.30
2022-12-19T07:12:40.355Z,36.20
2022-12-19T07:15:07.161Z,36.00
2022-12-19T07:17:33.913Z,36.30
2022-12-19T07:20:00.460Z,36.50
2022-12-19T07:22:30.706Z,36.30
2022-12-19T07:24:57.654Z,36.30
2022-12-19T07:27:25.655Z,36.40
2022-12-19T07:29:54.493Z,36.10
2022-12-19T07:32:21.560Z,36.40
2022-12-19T07:34:48.104Z,36.40
2022-12-19T07:37:14.684Z,36.30
2022-12-19T07:39:41.268Z,36.50
2022-12-19T07:42:07.834Z,36.30
2022-12-19T07:44:34.953Z,36.30
2022-12-19T07:47:01.524Z,36.50
2022-12-19T07:49:28.089Z,36.30
2022-12-19T07:51:54.735Z,36.30
2022-12-19T07:54:21.353Z,36.60
2022-12-19T07:56:47.926Z,36.30
2022-12-19T07:59:14.573Z,36.50
2022-12-19T08:01:41.161Z,36.50
2022-12-19T08:04:07.975Z,36.40
2022-12-19T08:06:40.635Z,36.60
2022-12-19T08:09:07.831Z,36.50
2022-12-19T08:11:34.503Z,36.40
2022-12-19T08:14:01.550Z,36.60
2022-12-19T08:16:28.242Z,36.50
2022-12-19T08:18:55.703Z,36.40
2022-12-19T08:21:22.687Z,36.60
2022-12-19T08:23:50.094Z,37.30
2022-12-19T08:26:19.186Z,36.50
2022-12-19T08:28:48.026Z,36.60
2022-12-19T08:31:17.185Z,36.70
2022-12-19T08:33:43.985Z,36.70
2022-12-19T08:36:11.964Z,36.90
2022-12-19T08:38:39.678Z,38.40
2022-12-19T08:41:06.722Z,41.10
2022-12-19T08:43:33.563Z,43.40
2022-12-19T08:46:00.290Z,41.00
2022-12-19T08:48:26.909Z,41.50
2022-12-19T08:50:54.771Z,39.60
2022-12-19T08:53:26.037Z,40.30
2022-12-19T08:56:00.911Z,39.70
2022-12-19T08:58:28.687Z,39.60
2022-12-19T09:01:05.353Z,39.30
2022-12-19T09:03:42.867Z,38.90
2022-12-19T09:06:19.784Z,38.80
2022-12-19T09:08:47.765Z,39.20
2022-12-19T09:11:15.707Z,39.10
2022-12-19T09:13:42.970Z,39.30
2022-12-19T09:16:16.779Z,40.10
2022-12-19T09:18:48.775Z,40.30
2022-12-19T09:21:16.040Z,40.40
2022-12-19T09:23:43.004Z,40.80
2022-12-19T09:26:12.971Z,39.60
2022-12-19T09:28:40.320Z,42.10
2022-12-19T09:31:08.347Z,41.10
2022-12-19T09:33:42.917Z,40.70
2022-12-19T09:36:17.610Z,40.00
2022-12-19T09:38:44.463Z,40.70
2022-12-19T09:41:14.047Z,40.60
2022-12-19T09:43:54.248Z,40.10
2022-12-19T09:46:47.647Z,40.30
2022-12-19T09:49:24.727Z,40.20
2022-12-19T09:51:59.051Z,39.80
2022-12-19T09:54:41.040Z,39.70
2022-12-19T09:57:13.393Z,40.50
2022-12-19T09:59:47.948Z,40.00
2022-12-19T10:02:26.883Z,39.70
2022-12-19T10:05:27.724Z,39.50
2022-12-19T10:08:07.864Z,39.90
2022-12-19T10:12:37.284Z,38.70
2022-12-19T10:13:30.509Z,39.30
2022-12-19T10:16:03.840Z,39.30
2022-12-19T10:18:30.784Z,40.00
2022-12-19T10:21:04.298Z,39.40
2022-12-19T10:23:50.339Z,38.90
2022-12-19T10:26:17.124Z,39.50
2022-12-19T10:28:50.194Z,39.70
2022-12-19T10:31:23.209Z,40.20
2022-12-19T10:33:54.672Z,40.40
2022-12-19T10:36:36.263Z,39.70
2022-12-19T10:39:12.729Z,39.80
2022-12-19T10:41:44.173Z,39.80
2022-12-19T10:44:11.817Z,39.30
2022-12-19T10:46:42.687Z,40.70
2022-12-19T10:49:17.144Z,41.30
2022-12-19T10:51:56.143Z,42.70
2022-12-19T10:54:27.580Z,42.50
2022-12-19T10:57:18.239Z,45.20
2022-12-19T11:00:04.009Z,45.10
2022-12-19T11:02:35.818Z,45.90
2022-12-19T11:05:03.622Z,44.80
2022-12-19T11:07:30.377Z,44.50
2022-12-19T11:10:05.657Z,43.90
2022-12-19T11:17:11.732Z,45.10
2022-12-19T11:20:53.051Z,45.00
2022-12-19T11:29:26.084Z,46.00
2022-12-19T11:30:08.859Z,45.50
2022-12-19T11:30:35.949Z,45.70
2022-12-19T11:30:37.768Z,46.50
2022-12-19T11:33:15.788Z,46.50
2022-12-19T11:35:48.462Z,46.30
2022-12-19T11:38:16.347Z,46.70
2022-12-19T11:40:52.981Z,46.50
2022-12-19T11:43:46.739Z,47.30
2022-12-19T11:46:32.492Z,47.20
2022-12-19T11:48:59.045Z,47.30
2022-12-19T11:51:33.429Z,47.50
2022-12-19T11:53:59.972Z,47.00
2022-12-19T11:56:27.962Z,46.90
2022-12-19T11:58:56.685Z,47.00
2022-12-19T12:01:26.335Z,47.20
2022-12-19T12:04:03.340Z,47.20
2022-12-19T12:06:34.797Z,47.30
2022-12-19T12:12:40.212Z,47.60
2022-12-19T12:19:04.531Z,47.50
2022-12-19T12:28:51.527Z,48.30
2022-12-19T12:30:59.851Z,47.70
2022-12-19T12:31:06.800Z,48.00
2022-12-19T12:31:17.979Z,48.30
2022-12-19T12:31:52.924Z,48.10
2022-12-19T12:31:53.741Z,48.30
2022-12-19T12:35:54.024Z,49.00
2022-12-19T12:37:03.484Z,48.60
2022-12-19T12:38:19.063Z,48.20
2022-12-19T12:40:59.710Z,47.80
2022-12-19T12:43:42.964Z,48.00
2022-12-19T12:46:13.175Z,48.40
2022-12-19T12:48:55.529Z,48.80
2022-12-19T12:51:22.584Z,48.10
2022-12-19T12:53:50.009Z,50.30
2022-12-19T12:56:17.495Z,51.30
2022-12-19T12:58:48.355Z,51.20
2022-12-19T13:01:18.146Z,49.70
2022-12-19T13:04:04.543Z,50.10
2022-12-19T13:06:38.811Z,49.50
2022-12-19T13:09:20.127Z,49.40
2022-12-19T13:12:09.360Z,49.00
2022-12-19T13:14:36.097Z,49.20
2022-12-19T13:17:03.511Z,49.20
2022-12-19T13:19:31.434Z,49.10
2022-12-19T13:22:04.167Z,49.10
2022-12-19T13:24:41.076Z,49.00
2022-12-19T13:27:19.871Z,48.60
2022-12-19T13:30:07.806Z,48.90
2022-12-19T13:32:40.567Z,49.30
2022-12-19T13:36:28.874Z,49.50
2022-12-19T13:39:51.498Z,49.10
2022-12-19T13:41:26.863Z,49.40
2022-12-19T13:43:58.532Z,49.80
2022-12-19T13:46:44.276Z,49.70
2022-12-19T13:49:27.159Z,49.70
2022-12-19T13:51:57.351Z,50.40
2022-12-19T13:54:32.071Z,50.50
2022-12-19T13:56:59.193Z,50.20
2022-12-19T13:59:30.146Z,49.40
2022-12-19T14:02:05.786Z,51.20
2022-12-19T14:04:32.951Z,55.40
2022-12-19T14:07:01.430Z,52.80
2022-12-19T14:11:27.109Z,51.30
2022-12-19T14:13:50.133Z,50.80
2022-12-19T14:15:29.758Z,51.60
2022-12-19T14:17:58.908Z,51.30
2022-12-19T14:22:01.573Z,51.90
2022-12-19T14:23:43.835Z,52.20
2022-12-19T14:28:26.302Z,52.20
2022-12-19T14:29:28.591Z,52.90
2022-12-19T14:33:39.246Z,52.40
2022-12-19T14:36:05.087Z,52.70
2022-12-19T14:39:20.731Z,53.30
2022-12-19T14:40:31.878Z,52.90
2022-12-19T14:43:58.724Z,53.00
2022-12-19T14:53:08.700Z,52.80
2022-12-19T14:54:07.520Z,53.50
2022-12-19T14:54:20.954Z,52.90
2022-12-19T14:56:16.463Z,52.90
2022-12-19T14:58:54.885Z,52.80
2022-12-19T15:01:08.984Z,52.80
2022-12-19T15:03:40.162Z,53.10
2022-12-19T15:07:06.027Z,53.10
2022-12-19T15:11:06.498Z,53.00
2022-12-19T15:14:47.629Z,53.20
2022-12-19T15:15:17.332Z,52.90
2022-12-19T15:17:45.636Z,53.40
2022-12-19T15:20:12.361Z,53.60
2022-12-19T15:22:39.031Z,52.50
2022-12-19T15:25:05.868Z,53.70
2022-12-19T15:27:32.449Z,53.30
2022-12-19T15:29:59.103Z,53.90
2022-12-19T15:32:25.694Z,54.60
2022-12-19T15:34:52.274Z,53.60
2022-12-19T15:37:18.876Z,55.50
2022-12-19T15:39:45.522Z,56.80
2022-12-19T15:42:22.697Z,57.20
2022-12-19T15:44:49.707Z,58.90
2022-12-19T15:47:25.715Z,55.20
2022-12-19T15:49:52.272Z,55.40
2022-12-19T15:52:19.429Z,54.40
2022-12-19T15:54:48.546Z,54.30
2022-12-19T15:57:19.684Z,54.90
2022-12-19T15:59:46.266Z,54.80
2022-12-19T16:02:15.878Z,55.20
2022-12-19T16:04:42.919Z,56.30
2022-12-19T16:07:16.329Z,55.90
2022-12-19T16:09:42.917Z,55.90
2022-12-19T16:12:13.332Z,58.00
2022-12-19T16:14:39.902Z,57.90
2022-12-19T16:17:09.614Z,59.80
2022-12-19T16:19:36.170Z,59.50
2022-12-19T16:22:09.708Z,57.10
2022-12-19T16:24:36.254Z,56.90
2022-12-19T16:27:03.098Z,58.50
2022-12-19T16:29:31.238Z,56.90
2022-12-19T16:31:57.942Z,57.00
2022-12-19T16:34:24.569Z,56.80
2022-12-19T16:36:51.195Z,55.80
2022-12-19T16:39:17.858Z,56.00
2022-12-19T16:41:45.265Z,56.50
2022-12-19T16:44:19.888Z,56.60
2022-12-19T16:46:50.597Z,55.90
2022-12-19T16:49:19.661Z,55.50
2022-12-19T16:51:46.464Z,54.80
2022-12-19T16:54:13.502Z,54.80
2022-12-19T16:56:47.866Z,55.20
2022-12-19T16:59:20.377Z,55.10
2022-12-19T17:01:47.267Z,54.60
2022-12-19T17:04:21.732Z,56.10
2022-12-19T17:06:48.705Z,56.10
2022-12-19T17:09:16.779Z,54.80
2022-12-19T17:12:00.719Z,54.30
2022-12-19T17:14:29.552Z,54.70
2022-12-19T17:17:00.661Z,54.60
2022-12-19T17:19:32.053Z,54.60
2022-12-19T17:21:58.622Z,54.70
2022-12-19T17:24:25.187Z,54.70
2022-12-19T17:26:51.723Z,55.10
2022-12-19T17:29:18.758Z,55.70
2022-12-19T17:31:45.329Z,62.90
2022-12-19T17:34:24.824Z,64.40
2022-12-19T17:36:51.421Z,61.80
2022-12-19T17:39:22.269Z,58.60
2022-12-19T17:41:49.867Z,60.70
2022-12-19T17:44:16.806Z,59.20
2022-12-19T17:46:44.172Z,57.30
2022-12-19T17:49:16.206Z,58.40
2022-12-19T17:51:45.786Z,57.30
2022-12-19T17:54:12.517Z,60.20
2022-12-19T17:56:39.059Z,59.70
2022-12-19T17:59:05.602Z,59.80
2022-12-19T18:01:32.645Z,60.90
2022-12-19T18:03:59.495Z,57.40
2022-12-19T18:06:26.139Z,56.00
2022-12-19T18:08:52.796Z,56.60
2022-12-19T18:11:23.781Z,55.30
2022-12-19T18:13:50.753Z,57.00
2022-12-19T18:16:19.650Z,55.30
2022-12-19T18:18:46.381Z,54.90
2022-12-19T18:21:17.693Z,56.20
2022-12-19T18:23:44.373Z,55.20
2022-12-19T18:26:11.412Z,55.20
2022-12-19T18:28:38.928Z,55.60
2022-12-19T18:31:11.705Z,56.10
2022-12-19T18:33:39.547Z,55.80
2022-12-19T18:36:07.296Z,55.10
2022-12-19T18:38:34.005Z,55.30
2022-12-19T18:41:00.623Z,54.80
2022-12-19T18:43:27.351Z,55.80
2022-12-19T18:45:53.996Z,55.40
2022-12-19T18:48:23.570Z,55.70
2022-12-19T18:50:50.163Z,55.90
2022-12-19T18:53:18.336Z,55.30
2022-12-19T18:55:44.905Z,55.30
2022-12-19T18:58:11.449Z,55.10
2022-12-19T19:00:38.489Z,56.10
2022-12-19T19:03:07.220Z,56.30
2022-12-19T19:05:35.147Z,56.00
2022-12-19T19:08:06.056Z,55.40
2022-12-19T19:10:32.764Z,54.90
2022-12-19T19:13:02.694Z,55.70
2022-12-19T19:15:33.232Z,55.60
2022-12-19T19:18:00.970Z,56.30
2022-12-19T19:20:28.865Z,55.50
2022-12-19T19:22:55.837Z,55.30
2022-12-19T19:25:22.483Z,55.10
2022-12-19T19:27:49.909Z,56.10
2022-12-19T19:30:16.660Z,58.50
2022-12-19T19:32:49.529Z,57.90
2022-12-19T19:35:17.435Z,57.40
2022-12-19T19:37:44.950Z,59.40
2022-12-19T19:40:11.999Z,59.20
2022-12-19T19:42:38.683Z,58.40
2022-12-19T19:45:05.882Z,60.10
2022-12-19T19:47:36.015Z,58.70
2022-12-19T19:50:07.376Z,57.90
2022-12-19T19:52:34.008Z,56.20
2022-12-19T19:55:00.600Z,57.30
2022-12-19T19:57:27.216Z,57.40
2022-12-19T19:59:53.763Z,56.30
2022-12-19T20:02:20.535Z,58.20
2022-12-19T20:04:47.247Z,58.70
2022-12-19T20:07:13.875Z,59.50
2022-12-19T20:09:40.428Z,57.90
2022-12-19T20:12:07.096Z,58.70
2022-12-19T20:14:33.721Z,60.10
2022-12-19T20:17:00.356Z,60.00
2022-12-19T20:19:27.066Z,60.30
2022-12-19T20:21:53.752Z,57.40
2022-12-19T20:24:20.317Z,56.30
2022-12-19T20:26:46.946Z,58.30
2022-12-19T20:29:13.942Z,59.80
2022-12-19T20:31:41.304Z,60.80
2022-12-19T20:34:07.985Z,59.30
2022-12-19T20:36:34.668Z,57.80
2022-12-19T20:39:01.239Z,59.20
2022-12-19T20:41:27.948Z,58.40
2022-12-19T20:43:55.028Z,59.30
2022-12-19T20:46:22.170Z,59.20
2022-12-19T20:48:49.150Z,56.90
2022-12-19T20:51:17.231Z,56.70
2022-12-19T20:53:44.213Z,56.60
2022-12-19T20:56:12.717Z,57.70
2022-12-19T20:58:39.354Z,57.10
2022-12-19T21:01:10.469Z,57.80
2022-12-19T21:03:37.820Z,56.20
2022-12-19T21:06:05.063Z,56.40
2022-12-19T21:08:32.207Z,57.30
2022-12-19T21:10:59.670Z,56.60
2022-12-19T21:13:26.243Z,56.20
2022-12-19T21:15:53.626Z,55.90
2022-12-19T21:18:20.701Z,56.20
2022-12-19T21:20:47.579Z,57.70
2022-12-19T21:23:14.232Z,57.50
2022-12-19T21:25:40.933Z,56.30
2022-12-19T21:28:07.629Z,57.40
2022-12-19T21:30:34.296Z,57.30
2022-12-19T21:33:01.135Z,58.60
2022-12-19T21:35:27.790Z,58.40
2022-12-19T21:37:54.405Z,56.30
2022-12-19T21:40:21.076Z,56.20
2022-12-19T21:42:48.074Z,58.50
2022-12-19T21:45:15.289Z,58.50
2022-12-19T21:47:43.022Z,59.70
2022-12-19T21:50:10.842Z,58.20
2022-12-19T21:52:37.602Z,56.40
2022-12-19T21:55:08.471Z,56.40
2022-12-19T21:57:39.336Z,57.90
2022-12-19T22:00:07.154Z,58.50
2022-12-19T22:02:34.049Z,58.50
2022-12-19T22:05:00.830Z,56.10
2022-12-19T22:07:27.459Z,56.80
2022-12-19T22:09:57.076Z,57.00
2022-12-19T22:12:23.860Z,56.90
2022-12-19T22:14:52.496Z,56.40
2022-12-19T22:17:19.153Z,56.00
2022-12-19T22:19:45.705Z,55.70
2022-12-19T22:22:12.315Z,56.00
2022-12-19T22:24:38.916Z,55.60
2022-12-19T22:27:05.475Z,56.50
2022-12-19T22:29:36.314Z,55.70
2022-12-19T22:32:03.812Z,55.70
2022-12-19T22:34:30.458Z,56.10
2022-12-19T22:36:57.075Z,56.70
2022-12-19T22:39:23.677Z,57.20
2022-12-19T22:41:50.295Z,55.70
2022-12-19T22:44:21.419Z,56.50
2022-12-19T22:46:48.174Z,56.50
2022-12-19T22:49:14.864Z,56.30
2022-12-19T22:51:41.830Z,58.40
2022-12-19T22:54:08.678Z,56.00
2022-12-19T22:56:35.321Z,55.90
2022-12-19T22:59:04.806Z,56.40
2022-12-19T23:01:36.869Z,56.10
2022-12-19T23:04:06.449Z,57.70
2022-12-19T23:06:34.058Z,56.70
2022-12-19T23:09:01.130Z,56.10
2022-12-19T23:11:32.236Z,56.40
2022-12-19T23:14:00.196Z,56.80
2022-12-19T23:16:26.788Z,56.80
2022-12-19T23:18:53.478Z,56.20
2022-12-19T23:21:21.807Z,55.90
2022-12-19T23:23:49.421Z,57.00
2022-12-19T23:26:20.655Z,55.80
2022-12-19T23:28:51.346Z,55.30
2022-12-19T23:31:18.320Z,55.30
2022-12-19T23:33:44.923Z,55.70
2022-12-19T23:36:11.626Z,57.00
2022-12-19T23:38:38.251Z,56.40
2022-12-19T23:41:08.766Z,56.50
2022-12-19T23:43:36.267Z,57.10
2022-12-19T23:46:10.726Z,58.30
2022-12-19T23:48:37.531Z,57.60
2022-12-19T23:51:05.512Z,56.90
2022-12-19T23:53:32.696Z,57.60
2022-12-19T23:55:59.602Z,58.40
2022-12-19T23:58:26.189Z,57.70
